Weather observations for the past three days for
Detroit, Willow Run Airport
| Date | Time (edt) | Wind (mph) | Vis. (mi.) | Weather | Sky Cond. | Temperature (ºF) | Relative Humidity | Wind Chill (°F) | Heat Index (°F) | Pressure | Precipitation (in) | ||||||
|---|---|---|---|---|---|---|---|---|---|---|---|---|---|---|---|---|---|
| Air | Dwpt | 6 hour | altimeter (in) | sea level (mb) | 1 hr | 3 hr | 6 hr | ||||||||||
| Max. | Min. | ||||||||||||||||
| 07 | 21:53 | W 12 | 10.00 | Overcast | BKN060 OVC080 | 52 | 30.9 | 45% | 29.89 | 1012.1 | |||||||
| 07 | 20:53 | W 6 | 10.00 | Mostly Cloudy | SCT070 BKN090 BKN110 | 52 | 30 | 43% | 29.86 | 1011.2 | |||||||
| 07 | 19:53 | W 8 | 10.00 | Mostly Cloudy | FEW065 BKN090 | 54 | 28 | 57.9 | 53.1 | 37% | 29.86 | 1011.1 | |||||
| 07 | 18:53 | W 13 | 10.00 | Partly Cloudy | SCT070 SCT090 | 55 | 28 | 36% | 29.87 | 1011.3 | |||||||
| 07 | 17:53 | W 13 G 23 | 10.00 | Mostly Cloudy | BKN080 | 55 | 27 | 34% | 29.87 | 1011.5 | |||||||
| 07 | 16:53 | NW 17 G 25 | 10.00 | Mostly Cloudy | BKN085 | 55 | 26.1 | 33% | 29.87 | 1011.5 | |||||||
| 07 | 15:53 | W 21 G 26 | 10.00 | Mostly Cloudy and Breezy | BKN070 BKN090 | 55 | 26.1 | 33% | 29.88 | 1011.7 | |||||||
| 07 | 14:53 | NW 17 G 29 | 10.00 | Mostly Cloudy | BKN075 | 54 | 27 | 35% | 29.88 | 1011.8 | |||||||
| 07 | 13:53 | W 17 G 28 | 10.00 | Mostly Cloudy | BKN065 | 55 | 27 | 55.9 | 45 | 34% | 29.89 | 1012.2 | |||||
| 07 | 12:53 | W 16 G 26 | 10.00 | A Few Clouds | FEW060 | 54 | 28.9 | 38% | 29.91 | 1012.7 | |||||||
| 07 | 11:53 | W 12 | 10.00 | Mostly Cloudy | BKN060 | 52 | 28 | 40% | 29.91 | 1012.8 | |||||||
| 07 | 10:53 | SW 13 G 21 | 10.00 | A Few Clouds | FEW055 | 53.1 | 28.9 | 40% | 29.91 | 1012.7 | |||||||
| 07 | 09:53 | SW 7 | 10.00 | Fair | CLR | 50 | 28.9 | 44% | 48 | 29.92 | 1013.1 | ||||||
| 07 | 08:53 | W 5 | 10.00 | Fair | CLR | 48 | 30 | 50% | 47 | 29.92 | 1013.2 | ||||||
| 07 | 07:53 | W 7 | 10.00 | Fair | CLR | 45 | 33.1 | 46 | 37.9 | 63% | 42 | 29.92 | 1013.2 | ||||
| 07 | 06:53 | SW 5 | 10.00 | Fair | CLR | 42.1 | 30 | 62% | 40 | 29.9 | 1012.6 | ||||||
| 07 | 05:53 | W 3 | 10.00 | Fair | CLR | 42.1 | 30 | 62% | 29.9 | 1012.3 | |||||||
| 07 | 04:53 | NW 6 | 10.00 | Overcast | OVC090 | 44.1 | 28.9 | 55% | 41 | 29.9 | 1012.5 | ||||||
| 07 | 03:53 | W 6 | 10.00 | Overcast | OVC090 | 44.1 | 32 | 63% | 41 | 29.9 | 1012.6 | ||||||
| 07 | 02:53 | W 6 | 10.00 | Overcast | OVC100 | 45 | 32 | 61% | 42 | 29.91 | 1012.7 | ||||||
| 07 | 01:53 | W 7 | 10.00 | Overcast | OVC100 | 46 | 32 | 52 | 46 | 58% | 43 | 29.91 | 1012.8 | ||||
| 07 | 00:53 | W 5 | 10.00 | Overcast | OVC100 | 48 | 33.1 | 56% | 47 | 29.91 | 1013.0 | ||||||
| 06 | 23:53 | W 5 | 10.00 | Overcast | OVC095 | 48 | 33.1 | 56% | 47 | 29.92 | 1013.1 | ||||||
| 06 | 22:53 | SW 5 | 10.00 | Overcast | OVC090 | 48.9 | 32 | 52% | 48 | 29.93 | 1013.5 | ||||||
| 06 | 21:53 | W 3 | 10.00 | Partly Cloudy | SCT080 | 50 | 30.9 | 48% | 29.92 | 1013.2 | |||||||
| 06 | 20:53 | N 3 | 10.00 | Overcast | SCT070 OVC085 | 51.1 | 30 | 45% | 29.91 | 1012.8 | |||||||
| 06 | 19:53 | W 6 | 10.00 | Overcast | OVC080 | 52 | 28 | 55 | 52 | 40% | 29.9 | 1012.5 | |||||
| 06 | 18:53 | N 6 | 10.00 | Mostly Cloudy | SCT070 BKN085 | 53.1 | 28.9 | 40% | 29.9 | 1012.4 | |||||||
| 06 | 17:53 | W 5 | 10.00 | Partly Cloudy | SCT075 | 54 | 28 | 37% | 29.9 | 1012.5 | |||||||
| 06 | 16:53 | NW 9 | 10.00 | Mostly Cloudy | BKN070 | 54 | 28.9 | 38% | 29.89 | 1012.3 | |||||||
| 06 | 15:53 | Vrbl 5 | 10.00 | Partly Cloudy | SCT060 | 54 | 30 | 40% | 29.9 | 1012.5 | |||||||
| 06 | 14:53 | W 9 | 10.00 | A Few Clouds | FEW060 | 54 | 28.9 | 38% | 29.9 | 1012.6 | |||||||
| 06 | 13:53 | N 13 | 10.00 | Partly Cloudy | SCT055 | 51.1 | 28 | 53.1 | 45 | 41% | 29.91 | 1012.7 | |||||
| 06 | 12:53 | NW 12 | 10.00 | Fair | CLR | 51.1 | 28.9 | 43% | 29.91 | 1012.8 | |||||||
| 06 | 11:53 | NW 13 G 22 | 10.00 | A Few Clouds | FEW050 | 53.1 | 32 | 45% | 29.89 | 1012.1 | |||||||
| 06 | 10:53 | NW 10 G 18 | 10.00 | Fair | CLR | 53.1 | 28 | 38% | 29.88 | 1011.8 | |||||||
| 06 | 09:53 | NW 13 | 10.00 | Fair | CLR | 51.1 | 28 | 41% | 29.87 | 1011.5 | |||||||
| 06 | 08:53 | NW 9 | 10.00 | Fair | CLR | 48.9 | 33.1 | 55% | 45 | 29.86 | 1010.9 | ||||||
| 06 | 07:53 | NW 7 | 10.00 | Fair | CLR | 46 | 30.9 | 48.9 | 45 | 56% | 43 | 29.84 | 1010.3 | ||||
| 06 | 06:53 | NW 7 | 10.00 | Partly Cloudy | SCT095 | 45 | 30.9 | 58% | 42 | 29.81 | 1009.6 | ||||||
| 06 | 05:53 | NW 5 | 10.00 | Overcast | OVC090 | 46.9 | 32 | 56% | 45 | 29.8 | 1009.0 | ||||||
| 06 | 04:53 | NW 5 | 10.00 | Overcast | BKN085 OVC120 | 46.9 | 32 | 56% | 45 | 29.78 | 1008.5 | ||||||
| 06 | 03:53 | NW 6 | 10.00 | Overcast | OVC095 | 48 | 32 | 54% | 46 | 29.78 | 1008.4 | ||||||
| 06 | 02:53 | W 6 | 10.00 | Overcast | OVC100 | 48 | 32 | 54% | 46 | 29.79 | 1008.8 | ||||||
| 06 | 01:53 | W 6 | 10.00 | Overcast | OVC080 | 48 | 34 | 53.1 | 48 | 58% | 46 | 29.8 | 1009.1 | ||||
| 06 | 00:53 | W 5 | 10.00 | Overcast | OVC075 | 48.9 | 30.9 | 50% | 48 | 29.8 | 1009.0 | ||||||
| 05 | 23:53 | NW 5 | 10.00 | Overcast | BKN070 OVC090 | 50 | 30 | 46% | 49 | 29.78 | 1008.4 | ||||||
| 05 | 22:53 | W 5 | 10.00 | Overcast | OVC080 | 50 | 30.9 | 48% | 49 | 29.79 | 1008.7 | ||||||
| 05 | 21:53 | W 5 | 10.00 | Overcast | OVC070 | 51.1 | 32 | 48% | 29.79 | 1008.4 | |||||||
| 05 | 20:53 | NW 6 | 10.00 | Overcast | OVC100 | 52 | 30.9 | 45% | 29.77 | 1007.9 | |||||||
| 05 | 19:53 | NW 7 | 10.00 | Mostly Cloudy | FEW080 BKN110 | 53.1 | 32 | 55 | 52 | 45% | 29.77 | 1007.8 | |||||
| 05 | 18:53 | NW 9 | 10.00 | Mostly Cloudy | BKN100 | 54 | 35.1 | 49% | 29.75 | 1007.2 | |||||||
| 05 | 17:53 | W 6 | 10.00 | Overcast | OVC090 | 55 | 41 | 59% | 29.76 | 1007.3 | |||||||
| 05 | 16:53 | W 9 | 10.00 | Overcast | SCT070 OVC085 | 54 | 41 | 62% | 29.76 | 1007.4 | |||||||
| 05 | 15:53 | SW 9 | 10.00 | Overcast | BKN075 OVC085 | 54 | 42.1 | 64% | 29.77 | 1007.7 | |||||||
| 05 | 14:53 | W 14 | 10.00 | Overcast | BKN060 OVC075 | 53.1 | 42.1 | 66% | 29.78 | 1008.1 | |||||||
| 05 | 13:53 | SW 12 | 10.00 | Overcast | OVC080 | 53.1 | 43 | 62.1 | 52 | 69% | 29.76 | 1007.4 | 0.02 | 0.02 | |||
| 05 | 12:53 | W 13 | 10.00 | Light Rain | OVC085 | 52 | 43 | 72% | 29.75 | 1007.0 | |||||||
| 05 | 11:53 | W 20 G 24 | 10.00 | Light Rain | OVC085 | 57 | 39 | 51% | 29.75 | 1006.9 | |||||||
| 05 | 10:53 | W 10 | 10.00 | Overcast | OVC085 | 59 | 37.9 | 46% | 29.71 | 1005.5 | |||||||
| 05 | 09:53 | W 15 | 10.00 | A Few Clouds | FEW085 | 60.1 | 46 | 60% | 29.69 | 1004.8 | |||||||
| 05 | 08:53 | SW 9 | 10.00 | Fair | CLR | 59 | 50 | 72% | 29.64 | 1003.4 | |||||||
| 05 | 07:53 | SW 9 | 10.00 | Fair | CLR | 57 | 53.1 | 57.9 | 55.9 | 87% | 29.65 | 1003.8 | 0.01 | ||||
| 05 | 06:53 | SW 10 | 10.00 | Fair | CLR | 55.9 | 52 | 87% | 29.61 | 1002.1 | |||||||
| 05 | 05:53 | SW 9 | 10.00 | A Few Clouds | FEW075 | 57 | 52 | 83% | 29.59 | 1001.4 | |||||||
| 05 | 04:53 | SW 12 | 10.00 | Partly Cloudy | SCT070 | 57 | 53.1 | 87% | 29.59 | 1001.3 | 0.01 | ||||||
| 05 | 03:53 | SW 13 | 10.00 | A Few Clouds | FEW075 | 57 | 53.1 | 87% | 29.56 | 1000.5 | |||||||
| 05 | 02:53 | SW 8 | 10.00 | Mostly Cloudy | BKN085 | 57 | 54 | 90% | 29.55 | 1000.1 | 0.01 | ||||||
| 05 | 01:53 | SW 17 | 10.00 | Light Rain | OVC085 | 57.9 | 54 | 66 | 57.9 | 87% | 29.56 | 1000.4 | 0.04 | 0.17 | |||
| 05 | 00:53 | SW 18 G 25 | 9.00 | Light Rain | BKN065 OVC080 | 57.9 | 53.1 | 84% | 29.58 | 1001.0 | 0.12 | ||||||
| 04 | 23:53 | SW 16 G 30 | 10.00 | Partly Cloudy | SCT120 | 66 | 51.1 | 59% | 29.56 | 1000.4 | |||||||
| 04 | 22:53 | S 17 G 28 | 10.00 | Partly Cloudy | SCT120 | 66 | 52 | 61% | 29.56 | 1000.5 | 0.01 | ||||||
| Date | Time (edt) | Wind (mph) | Vis. (mi.) | Weather | Sky Cond. | Air | Dwpt | Max. | Min. | Relative Humidity | Wind Chill (°F) | Heat Index (°F) | altimeter (in) | sea level (mb) | 1 hr | 3 hr | 6 hr |
| 6 hour | |||||||||||||||||
| Temperature (ºF) | Pressure | Precipitation (in) | |||||||||||||||